sensor_id;sensor_type;location;lat;lon;timestamp;temperature;humidity
6174;DHT22;3120;48.796;9.796;2022-12-20T00:01:14;1.80;99.90
6174;DHT22;3120;48.796;9.796;2022-12-20T00:03:40;1.80;99.90
6174;DHT22;3120;48.796;9.796;2022-12-20T00:06:06;1.80;99.90
6174;DHT22;3120;48.796;9.796;2022-12-20T00:08:32;1.70;99.90
6174;DHT22;3120;48.796;9.796;2022-12-20T00:11:00;1.60;99.90
6174;DHT22;3120;48.796;9.796;2022-12-20T00:13:26;1.80;99.90
6174;DHT22;3120;48.796;9.796;2022-12-20T00:16:16;1.70;99.90
6174;DHT22;3120;48.796;9.796;2022-12-20T00:18:42;1.70;99.90
6174;DHT22;3120;48.796;9.796;2022-12-20T00:21:10;1.70;99.90
6174;DHT22;3120;48.796;9.796;2022-12-20T00:23:37;1.60;99.90
6174;DHT22;3120;48.796;9.796;2022-12-20T00:26:14;1.70;99.90
6174;DHT22;3120;48.796;9.796;2022-12-20T00:28:41;1.70;99.90
6174;DHT22;3120;48.796;9.796;2022-12-20T00:31:08;1.50;99.90
6174;DHT22;3120;48.796;9.796;2022-12-20T00:33:36;1.50;99.90
6174;DHT22;3120;48.796;9.796;2022-12-20T00:36:03;1.60;99.90
6174;DHT22;3120;48.796;9.796;2022-12-20T00:38:29;1.60;99.90
6174;DHT22;3120;48.796;9.796;2022-12-20T00:43:24;1.70;99.90
6174;DHT22;3120;48.796;9.796;2022-12-20T00:45:50;1.60;99.90
6174;DHT22;3120;48.796;9.796;2022-12-20T00:48:15;1.60;99.90
6174;DHT22;3120;48.796;9.796;2022-12-20T00:50:41;1.60;99.90
6174;DHT22;3120;48.796;9.796;2022-12-20T00:53:06;2.70;99.90
6174;DHT22;3120;48.796;9.796;2022-12-20T00:55:34;1.70;99.90
6174;DHT22;3120;48.796;9.796;2022-12-20T00:57:59;1.70;99.90
6174;DHT22;3120;48.796;9.796;2022-12-20T01:00:25;1.60;99.90
6174;DHT22;3120;48.796;9.796;2022-12-20T01:02:50;1.60;99.90
6174;DHT22;3120;48.796;9.796;2022-12-20T01:08:39;1.60;99.90
6174;DHT22;3120;48.796;9.796;2022-12-20T01:13:40;1.60;99.90
6174;DHT22;3120;48.796;9.796;2022-12-20T01:16:09;2.60;99.90
6174;DHT22;3120;48.796;9.796;2022-12-20T01:18:34;1.60;99.90
6174;DHT22;3120;48.796;9.796;2022-12-20T01:21:02;2.00;99.90
6174;DHT22;3120;48.796;9.796;2022-12-20T01:23:29;1.50;99.90
6174;DHT22;3120;48.796;9.796;2022-12-20T01:25:59;1.80;99.90
6174;DHT22;3120;48.796;9.796;2022-12-20T01:28:26;1.50;99.90
6174;DHT22;3120;48.796;9.796;2022-12-20T01:30:52;1.50;99.90
6174;DHT22;3120;48.796;9.796;2022-12-20T01:33:18;1.60;99.90
6174;DHT22;3120;48.796;9.796;2022-12-20T01:35:54;1.60;99.90
6174;DHT22;3120;48.796;9.796;2022-12-20T01:38:20;2.20;99.90
6174;DHT22;3120;48.796;9.796;2022-12-20T01:40:45;1.60;99.90
6174;DHT22;3120;48.796;9.796;2022-12-20T01:43:14;1.60;99.90
6174;DHT22;3120;48.796;9.796;2022-12-20T01:45:40;1.60;99.90
6174;DHT22;3120;48.796;9.796;2022-12-20T01:48:06;1.60;99.90
6174;DHT22;3120;48.796;9.796;2022-12-20T01:50:33;1.60;99.90
6174;DHT22;3120;48.796;9.796;2022-12-20T01:52:59;1.60;99.90
6174;DHT22;3120;48.796;9.796;2022-12-20T01:55:27;1.60;99.90
6174;DHT22;3120;48.796;9.796;2022-12-20T02:00:24;1.50;99.90
6174;DHT22;3120;48.796;9.796;2022-12-20T02:02:50;1.60;99.90
6174;DHT22;3120;48.796;9.796;2022-12-20T02:05:18;2.90;99.90
6174;DHT22;3120;48.796;9.796;2022-12-20T02:07:47;1.60;99.90
6174;DHT22;3120;48.796;9.796;2022-12-20T02:10:14;1.60;99.90
6174;DHT22;3120;48.796;9.796;2022-12-20T02:12:43;1.70;99.90
6174;DHT22;3120;48.796;9.796;2022-12-20T02:28:59;1.50;99.90
6174;DHT22;3120;48.796;9.796;2022-12-20T02:31:38;1.60;99.90
6174;DHT22;3120;48.796;9.796;2022-12-20T02:34:06;1.60;99.90
6174;DHT22;3120;48.796;9.796;2022-12-20T02:36:32;1.50;99.90
6174;DHT22;3120;48.796;9.796;2022-12-20T02:38:58;1.50;99.90
6174;DHT22;3120;48.796;9.796;2022-12-20T02:41:36;1.50;99.90
6174;DHT22;3120;48.796;9.796;2022-12-20T02:44:13;1.50;99.90
6174;DHT22;3120;48.796;9.796;2022-12-20T02:47:00;1.50;99.90
6174;DHT22;3120;48.796;9.796;2022-12-20T02:49:29;1.50;99.90
6174;DHT22;3120;48.796;9.796;2022-12-20T02:51:58;1.60;99.90
6174;DHT22;3120;48.796;9.796;2022-12-20T02:54:25;1.50;99.90
6174;DHT22;3120;48.796;9.796;2022-12-20T02:56:59;2.50;99.90
6174;DHT22;3120;48.796;9.796;2022-12-20T02:59:44;1.50;99.90
6174;DHT22;3120;48.796;9.796;2022-12-20T03:02:20;1.60;99.90
6174;DHT22;3120;48.796;9.796;2022-12-20T03:04:47;1.60;99.90
6174;DHT22;3120;48.796;9.796;2022-12-20T03:07:32;1.60;99.90
6174;DHT22;3120;48.796;9.796;2022-12-20T03:09:58;1.60;99.90
6174;DHT22;3120;48.796;9.796;2022-12-20T03:12:24;2.50;99.90
6174;DHT22;3120;48.796;9.796;2022-12-20T03:14:49;1.60;99.90
6174;DHT22;3120;48.796;9.796;2022-12-20T03:17:15;1.50;99.90
6174;DHT22;3120;48.796;9.796;2022-12-20T03:19:40;1.40;99.90
6174;DHT22;3120;48.796;9.796;2022-12-20T03:22:06;1.50;99.90
6174;DHT22;3120;48.796;9.796;2022-12-20T03:24:32;1.50;99.90
6174;DHT22;3120;48.796;9.796;2022-12-20T03:26:57;1.40;99.90
6174;DHT22;3120;48.796;9.796;2022-12-20T03:29:23;1.90;99.90
6174;DHT22;3120;48.796;9.796;2022-12-20T03:31:49;1.50;99.90
6174;DHT22;3120;48.796;9.796;2022-12-20T03:34:14;1.40;99.90
6174;DHT22;3120;48.796;9.796;2022-12-20T03:36:40;1.40;99.90
6174;DHT22;3120;48.796;9.796;2022-12-20T03:39:06;1.40;99.90
6174;DHT22;3120;48.796;9.796;2022-12-20T03:41:31;1.30;99.90
6174;DHT22;3120;48.796;9.796;2022-12-20T03:43:57;1.30;99.90
6174;DHT22;3120;48.796;9.796;2022-12-20T03:46:23;2.10;99.90
6174;DHT22;3120;48.796;9.796;2022-12-20T03:48:48;1.30;99.90
6174;DHT22;3120;48.796;9.796;2022-12-20T03:51:17;1.10;99.90
6174;DHT22;3120;48.796;9.796;2022-12-20T03:53:43;1.20;99.90
6174;DHT22;3120;48.796;9.796;2022-12-20T03:56:08;2.20;99.90
6174;DHT22;3120;48.796;9.796;2022-12-20T03:58:34;2.20;99.90
6174;DHT22;3120;48.796;9.796;2022-12-20T04:00:59;2.70;99.90
6174;DHT22;3120;48.796;9.796;2022-12-20T04:03:25;1.10;99.90
6174;DHT22;3120;48.796;9.796;2022-12-20T04:05:51;1.90;99.90
6174;DHT22;3120;48.796;9.796;2022-12-20T04:08:22;0.90;99.90
6174;DHT22;3120;48.796;9.796;2022-12-20T04:10:47;1.10;99.90
6174;DHT22;3120;48.796;9.796;2022-12-20T04:13:31;0.90;99.90
6174;DHT22;3120;48.796;9.796;2022-12-20T04:15:57;1.10;99.90
6174;DHT22;3120;48.796;9.796;2022-12-20T04:18:22;2.50;99.90
6174;DHT22;3120;48.796;9.796;2022-12-20T04:20:52;1.00;99.90
6174;DHT22;3120;48.796;9.796;2022-12-20T04:23:18;1.80;99.90
6174;DHT22;3120;48.796;9.796;2022-12-20T04:25:43;0.80;99.90
6174;DHT22;3120;48.796;9.796;2022-12-20T04:28:09;0.90;99.90
6174;DHT22;3120;48.796;9.796;2022-12-20T04:33:57;0.90;99.90
6174;DHT22;3120;48.796;9.796;2022-12-20T04:36:23;0.90;99.90
6174;DHT22;3120;48.796;9.796;2022-12-20T04:38:49;1.50;99.90
6174;DHT22;3120;48.796;9.796;2022-12-20T04:41:14;1.00;99.90
6174;DHT22;3120;48.796;9.796;2022-12-20T04:43:55;1.00;99.90
6174;DHT22;3120;48.796;9.796;2022-12-20T04:46:22;1.00;99.90
6174;DHT22;3120;48.796;9.796;2022-12-20T04:48:48;1.10;99.90
6174;DHT22;3120;48.796;9.796;2022-12-20T04:51:14;1.10;99.90
6174;DHT22;3120;48.796;9.796;2022-12-20T04:53:54;1.10;99.90
6174;DHT22;3120;48.796;9.796;2022-12-20T04:56:26;1.10;99.90
6174;DHT22;3120;48.796;9.796;2022-12-20T04:58:54;1.20;99.90
6174;DHT22;3120;48.796;9.796;2022-12-20T05:01:20;1.20;99.90
6174;DHT22;3120;48.796;9.796;2022-12-20T05:03:47;1.20;99.90
6174;DHT22;3120;48.796;9.796;2022-12-20T05:06:13;1.20;99.90
6174;DHT22;3120;48.796;9.796;2022-12-20T05:08:39;2.10;99.90
6174;DHT22;3120;48.796;9.796;2022-12-20T05:11:05;1.30;99.90
6174;DHT22;3120;48.796;9.796;2022-12-20T05:13:31;1.20;99.90
6174;DHT22;3120;48.796;9.796;2022-12-20T05:15:57;1.20;99.90
6174;DHT22;3120;48.796;9.796;2022-12-20T05:18:24;1.30;99.90
6174;DHT22;3120;48.796;9.796;2022-12-20T05:20:50;1.20;99.90
6174;DHT22;3120;48.796;9.796;2022-12-20T05:23:36;1.30;99.90
6174;DHT22;3120;48.796;9.796;2022-12-20T05:26:22;1.30;99.90
6174;DHT22;3120;48.796;9.796;2022-12-20T05:28:49;1.20;99.90
6174;DHT22;3120;48.796;9.796;2022-12-20T05:31:14;1.20;99.90
6174;DHT22;3120;48.796;9.796;2022-12-20T05:33:40;1.30;99.90
6174;DHT22;3120;48.796;9.796;2022-12-20T05:36:06;2.70;99.90
6174;DHT22;3120;48.796;9.796;2022-12-20T05:38:32;1.30;99.90
6174;DHT22;3120;48.796;9.796;2022-12-20T05:40:57;2.30;99.90
6174;DHT22;3120;48.796;9.796;2022-12-20T05:43:23;2.40;99.90
6174;DHT22;3120;48.796;9.796;2022-12-20T05:45:50;1.90;99.90
6174;DHT22;3120;48.796;9.796;2022-12-20T05:48:17;1.30;99.90
6174;DHT22;3120;48.796;9.796;2022-12-20T05:50:45;2.60;99.90
6174;DHT22;3120;48.796;9.796;2022-12-20T05:53:16;1.40;99.90
6174;DHT22;3120;48.796;9.796;2022-12-20T05:55:47;1.30;99.90
6174;DHT22;3120;48.796;9.796;2022-12-20T06:01:35;1.50;99.90
6174;DHT22;3120;48.796;9.796;2022-12-20T06:04:01;1.50;99.90
6174;DHT22;3120;48.796;9.796;2022-12-20T06:06:27;1.40;99.90
6174;DHT22;3120;48.796;9.796;2022-12-20T06:08:52;1.40;99.90
6174;DHT22;3120;48.796;9.796;2022-12-20T06:11:18;1.40;99.90
6174;DHT22;3120;48.796;9.796;2022-12-20T06:13:43;1.50;99.90
6174;DHT22;3120;48.796;9.796;2022-12-20T06:16:09;1.40;99.90
6174;DHT22;3120;48.796;9.796;2022-12-20T06:18:34;1.50;99.90
6174;DHT22;3120;48.796;9.796;2022-12-20T06:21:00;1.40;99.90
6174;DHT22;3120;48.796;9.796;2022-12-20T06:23:27;1.40;99.90
6174;DHT22;3120;48.796;9.796;2022-12-20T06:25:52;1.40;99.90
6174;DHT22;3120;48.796;9.796;2022-12-20T06:28:18;1.40;99.90
6174;DHT22;3120;48.796;9.796;2022-12-20T06:30:53;1.80;99.90
6174;DHT22;3120;48.796;9.796;2022-12-20T06:36:28;1.40;99.90
6174;DHT22;3120;48.796;9.796;2022-12-20T06:38:53;1.40;99.90
6174;DHT22;3120;48.796;9.796;2022-12-20T06:41:19;1.40;99.90
6174;DHT22;3120;48.796;9.796;2022-12-20T06:43:45;1.40;99.90
6174;DHT22;3120;48.796;9.796;2022-12-20T06:46:10;1.40;99.90
6174;DHT22;3120;48.796;9.796;2022-12-20T06:48:36;1.30;99.90
6174;DHT22;3120;48.796;9.796;2022-12-20T06:51:01;1.30;99.90
6174;DHT22;3120;48.796;9.796;2022-12-20T06:53:28;1.40;99.90
6174;DHT22;3120;48.796;9.796;2022-12-20T06:55:55;1.40;99.90
6174;DHT22;3120;48.796;9.796;2022-12-20T06:58:20;3.10;99.90
6174;DHT22;3120;48.796;9.796;2022-12-20T07:00:46;1.60;99.90
6174;DHT22;3120;48.796;9.796;2022-12-20T07:03:12;1.60;99.90
6174;DHT22;3120;48.796;9.796;2022-12-20T07:05:38;1.60;99.90
6174;DHT22;3120;48.796;9.796;2022-12-20T07:11:10;1.70;99.90
6174;DHT22;3120;48.796;9.796;2022-12-20T07:13:36;1.60;99.90
6174;DHT22;3120;48.796;9.796;2022-12-20T07:16:03;3.70;99.90
6174;DHT22;3120;48.796;9.796;2022-12-20T07:18:31;2.00;99.90
6174;DHT22;3120;48.796;9.796;2022-12-20T07:21:02;1.60;99.90
6174;DHT22;3120;48.796;9.796;2022-12-20T07:23:31;1.80;99.90
6174;DHT22;3120;48.796;9.796;2022-12-20T07:25:58;1.80;99.90
6174;DHT22;3120;48.796;9.796;2022-12-20T07:28:25;1.90;99.90
6174;DHT22;3120;48.796;9.796;2022-12-20T07:30:52;1.90;99.90
6174;DHT22;3120;48.796;9.796;2022-12-20T07:33:17;1.90;99.90
6174;DHT22;3120;48.796;9.796;2022-12-20T07:35:43;1.80;99.90
6174;DHT22;3120;48.796;9.796;2022-12-20T07:38:11;2.00;99.90
6174;DHT22;3120;48.796;9.796;2022-12-20T07:40:41;2.00;99.90
6174;DHT22;3120;48.796;9.796;2022-12-20T07:43:08;2.00;99.90
6174;DHT22;3120;48.796;9.796;2022-12-20T07:45:34;2.00;99.90
6174;DHT22;3120;48.796;9.796;2022-12-20T07:48:00;2.20;99.90
6174;DHT22;3120;48.796;9.796;2022-12-20T07:50:27;4.30;99.90
6174;DHT22;3120;48.796;9.796;2022-12-20T07:52:54;2.20;99.90
6174;DHT22;3120;48.796;9.796;2022-12-20T07:55:20;2.20;99.90
6174;DHT22;3120;48.796;9.796;2022-12-20T07:57:50;2.30;99.90
6174;DHT22;3120;48.796;9.796;2022-12-20T08:00:17;2.30;99.90
6174;DHT22;3120;48.796;9.796;2022-12-20T08:02:51;2.40;99.90
6174;DHT22;3120;48.796;9.796;2022-12-20T08:05:18;2.40;99.90
6174;DHT22;3120;48.796;9.796;2022-12-20T08:07:45;2.50;99.90
6174;DHT22;3120;48.796;9.796;2022-12-20T08:10:12;2.50;99.90
6174;DHT22;3120;48.796;9.796;2022-12-20T08:12:48;2.40;99.90
6174;DHT22;3120;48.796;9.796;2022-12-20T08:15:15;2.90;99.90
6174;DHT22;3120;48.796;9.796;2022-12-20T08:17:40;2.60;99.90
6174;DHT22;3120;48.796;9.796;2022-12-20T08:20:06;2.70;99.90
6174;DHT22;3120;48.796;9.796;2022-12-20T08:22:33;2.70;99.90
6174;DHT22;3120;48.796;9.796;2022-12-20T08:24:59;3.80;99.90
6174;DHT22;3120;48.796;9.796;2022-12-20T08:27:25;2.80;99.90
6174;DHT22;3120;48.796;9.796;2022-12-20T08:29:51;3.00;99.90
6174;DHT22;3120;48.796;9.796;2022-12-20T08:32:16;5.20;99.90
6174;DHT22;3120;48.796;9.796;2022-12-20T08:34:42;3.20;99.90
6174;DHT22;3120;48.796;9.796;2022-12-20T08:37:07;3.10;99.90
6174;DHT22;3120;48.796;9.796;2022-12-20T08:39:33;3.20;99.90
6174;DHT22;3120;48.796;9.796;2022-12-20T08:41:58;3.10;99.90
6174;DHT22;3120;48.796;9.796;2022-12-20T08:44:24;3.10;99.90
6174;DHT22;3120;48.796;9.796;2022-12-20T08:46:53;5.00;99.90
6174;DHT22;3120;48.796;9.796;2022-12-20T08:49:18;3.20;99.90
6174;DHT22;3120;48.796;9.796;2022-12-20T08:51:44;3.30;99.90
6174;DHT22;3120;48.796;9.796;2022-12-20T08:54:10;3.30;99.90
6174;DHT22;3120;48.796;9.796;2022-12-20T08:56:35;3.30;99.90
6174;DHT22;3120;48.796;9.796;2022-12-20T08:59:01;3.40;99.90
6174;DHT22;3120;48.796;9.796;2022-12-20T09:01:26;3.50;99.90
6174;DHT22;3120;48.796;9.796;2022-12-20T09:03:54;3.60;99.90
6174;DHT22;3120;48.796;9.796;2022-12-20T09:06:21;3.70;99.90
6174;DHT22;3120;48.796;9.796;2022-12-20T09:08:47;2.00;99.90
6174;DHT22;3120;48.796;9.796;2022-12-20T09:11:24;3.80;99.90
6174;DHT22;3120;48.796;9.796;2022-12-20T09:13:52;3.80;99.90
6174;DHT22;3120;48.796;9.796;2022-12-20T09:16:20;3.80;99.90
6174;DHT22;3120;48.796;9.796;2022-12-20T09:18:54;4.20;99.90
6174;DHT22;3120;48.796;9.796;2022-12-20T09:21:21;3.90;99.90
6174;DHT22;3120;48.796;9.796;2022-12-20T09:23:49;4.00;99.90
6174;DHT22;3120;48.796;9.796;2022-12-20T09:26:17;4.20;99.90
6174;DHT22;3120;48.796;9.796;2022-12-20T09:28:43;4.30;99.90
6174;DHT22;3120;48.796;9.796;2022-12-20T09:31:12;4.30;99.90
6174;DHT22;3120;48.796;9.796;2022-12-20T09:33:38;5.20;99.90
6174;DHT22;3120;48.796;9.796;2022-12-20T09:36:05;4.40;99.90
6174;DHT22;3120;48.796;9.796;2022-12-20T09:38:31;4.50;99.90
6174;DHT22;3120;48.796;9.796;2022-12-20T09:41:03;4.60;99.90
6174;DHT22;3120;48.796;9.796;2022-12-20T09:43:29;4.60;99.90
6174;DHT22;3120;48.796;9.796;2022-12-20T09:45:58;6.30;99.90
6174;DHT22;3120;48.796;9.796;2022-12-20T09:48:38;4.60;99.90
6174;DHT22;3120;48.796;9.796;2022-12-20T09:59:38;4.80;99.90
6174;DHT22;3120;48.796;9.796;2022-12-20T10:02:09;4.80;99.90
6174;DHT22;3120;48.796;9.796;2022-12-20T10:04:36;4.80;99.90
6174;DHT22;3120;48.796;9.796;2022-12-20T10:23:24;5.10;99.90
6174;DHT22;3120;48.796;9.796;2022-12-20T10:25:56;5.20;99.90
6174;DHT22;3120;48.796;9.796;2022-12-20T10:28:29;5.40;99.90
6174;DHT22;3120;48.796;9.796;2022-12-20T10:31:07;5.50;99.90
6174;DHT22;3120;48.796;9.796;2022-12-20T10:33:36;5.80;99.90
6174;DHT22;3120;48.796;9.796;2022-12-20T10:39:06;6.30;98.50
6174;DHT22;3120;48.796;9.796;2022-12-20T10:44:25;6.30;68.80
6174;DHT22;3120;48.796;9.796;2022-12-20T10:46:58;6.40;86.20
6174;DHT22;3120;48.796;9.796;2022-12-20T10:51:55;6.30;83.60
6174;DHT22;3120;48.796;9.796;2022-12-20T10:54:35;6.30;68.60
6174;DHT22;3120;48.796;9.796;2022-12-20T10:59:54;6.70;46.60
6174;DHT22;3120;48.796;9.796;2022-12-20T11:02:27;6.50;63.20
6174;DHT22;3120;48.796;9.796;2022-12-20T11:07:50;6.40;91.10
6174;DHT22;3120;48.796;9.796;2022-12-20T11:10:20;6.30;79.60
6174;DHT22;3120;48.796;9.796;2022-12-20T11:15:22;6.30;68.90
6174;DHT22;3120;48.796;9.796;2022-12-20T11:17:50;6.30;91.50
6174;DHT22;3120;48.796;9.796;2022-12-20T11:23:32;6.30;99.90
6174;DHT22;3120;48.796;9.796;2022-12-20T11:31:59;6.20;99.90
6174;DHT22;3120;48.796;9.796;2022-12-20T11:34:57;6.30;99.90
6174;DHT22;3120;48.796;9.796;2022-12-20T11:40:32;6.10;99.90
6174;DHT22;3120;48.796;9.796;2022-12-20T11:43:16;6.00;99.90
6174;DHT22;3120;48.796;9.796;2022-12-20T11:48:38;5.90;99.90
6174;DHT22;3120;48.796;9.796;2022-12-20T11:53:55;5.80;99.90
6174;DHT22;3120;48.796;9.796;2022-12-20T11:56:39;5.90;99.90
6174;DHT22;3120;48.796;9.796;2022-12-20T12:02:10;6.00;99.90
6174;DHT22;3120;48.796;9.796;2022-12-20T12:04:57;6.00;99.90
6174;DHT22;3120;48.796;9.796;2022-12-20T12:07:35;6.00;99.90
6174;DHT22;3120;48.796;9.796;2022-12-20T12:10:21;6.00;99.90
6174;DHT22;3120;48.796;9.796;2022-12-20T12:13:10;6.00;99.90
6174;DHT22;3120;48.796;9.796;2022-12-20T12:16:10;6.00;99.90
6174;DHT22;3120;48.796;9.796;2022-12-20T12:18:38;6.10;99.90
6174;DHT22;3120;48.796;9.796;2022-12-20T12:26:31;6.30;99.90
6174;DHT22;3120;48.796;9.796;2022-12-20T12:29:03;6.40;99.90
6174;DHT22;3120;48.796;9.796;2022-12-20T12:31:44;6.40;99.90
6174;DHT22;3120;48.796;9.796;2022-12-20T12:39:55;6.50;99.90
6174;DHT22;3120;48.796;9.796;2022-12-20T12:46:00;6.60;99.90
6174;DHT22;3120;48.796;9.796;2022-12-20T12:48:41;6.40;99.90
6174;DHT22;3120;48.796;9.796;2022-12-20T12:51:09;6.40;99.90
6174;DHT22;3120;48.796;9.796;2022-12-20T12:56:46;6.40;99.90
6174;DHT22;3120;48.796;9.796;2022-12-20T13:17:56;7.70;92.10
6174;DHT22;3120;48.796;9.796;2022-12-20T13:20:25;7.90;92.30
6174;DHT22;3120;48.796;9.796;2022-12-20T13:25:44;6.90;95.30
6174;DHT22;3120;48.796;9.796;2022-12-20T13:33:40;6.80;99.90
6174;DHT22;3120;48.796;9.796;2022-12-20T13:38:58;6.90;99.90
6174;DHT22;3120;48.796;9.796;2022-12-20T13:44:00;7.00;99.90
6174;DHT22;3120;48.796;9.796;2022-12-20T13:46:42;8.20;95.10
6174;DHT22;3120;48.796;9.796;2022-12-20T13:49:35;7.10;97.00
6174;DHT22;3120;48.796;9.796;2022-12-20T13:54:53;7.10;98.20
6174;DHT22;3120;48.796;9.796;2022-12-20T13:57:39;7.00;99.90
6174;DHT22;3120;48.796;9.796;2022-12-20T14:00:15;6.90;99.90
6174;DHT22;3120;48.796;9.796;2022-12-20T14:02:42;6.80;99.90
6174;DHT22;3120;48.796;9.796;2022-12-20T14:05:41;6.70;99.90
6174;DHT22;3120;48.796;9.796;2022-12-20T14:08:12;6.50;99.90
6174;DHT22;3120;48.796;9.796;2022-12-20T14:10:42;6.50;99.90
6174;DHT22;3120;48.796;9.796;2022-12-20T14:13:21;6.50;99.90
6174;DHT22;3120;48.796;9.796;2022-12-20T14:15:52;7.60;99.90
6174;DHT22;3120;48.796;9.796;2022-12-20T14:18:19;6.50;99.90
6174;DHT22;3120;48.796;9.796;2022-12-20T14:20:52;6.30;99.90
6174;DHT22;3120;48.796;9.796;2022-12-20T14:23:23;6.30;99.90
6174;DHT22;3120;48.796;9.796;2022-12-20T14:25:54;6.20;99.90
6174;DHT22;3120;48.796;9.796;2022-12-20T14:28:26;7.60;99.90
6174;DHT22;3120;48.796;9.796;2022-12-20T14:30:54;7.50;99.90
6174;DHT22;3120;48.796;9.796;2022-12-20T14:35:52;5.40;99.90
6174;DHT22;3120;48.796;9.796;2022-12-20T14:38:23;6.10;99.90
6174;DHT22;3120;48.796;9.796;2022-12-20T14:40:52;6.00;99.90
6174;DHT22;3120;48.796;9.796;2022-12-20T14:43:26;6.00;99.90
6174;DHT22;3120;48.796;9.796;2022-12-20T14:46:16;5.90;99.90
6174;DHT22;3120;48.796;9.796;2022-12-20T14:48:42;6.00;99.90
6174;DHT22;3120;48.796;9.796;2022-12-20T14:51:08;6.10;99.90
6174;DHT22;3120;48.796;9.796;2022-12-20T14:53:37;6.70;99.90
6174;DHT22;3120;48.796;9.796;2022-12-20T14:56:13;6.10;99.90
6174;DHT22;3120;48.796;9.796;2022-12-20T14:58:40;6.10;99.90
6174;DHT22;3120;48.796;9.796;2022-12-20T15:01:21;6.10;99.90
6174;DHT22;3120;48.796;9.796;2022-12-20T15:03:54;5.90;99.90
6174;DHT22;3120;48.796;9.796;2022-12-20T15:08:56;5.80;99.90
6174;DHT22;3120;48.796;9.796;2022-12-20T15:11:22;6.60;99.90
6174;DHT22;3120;48.796;9.796;2022-12-20T15:13:48;5.60;99.90
6174;DHT22;3120;48.796;9.796;2022-12-20T15:16:22;5.60;99.90
6174;DHT22;3120;48.796;9.796;2022-12-20T15:19:00;5.50;99.90
6174;DHT22;3120;48.796;9.796;2022-12-20T15:21:34;5.60;99.90
6174;DHT22;3120;48.796;9.796;2022-12-20T15:24:04;5.60;99.90
6174;DHT22;3120;48.796;9.796;2022-12-20T15:26:34;5.40;99.90
6174;DHT22;3120;48.796;9.796;2022-12-20T15:29:00;5.30;99.90
6174;DHT22;3120;48.796;9.796;2022-12-20T15:31:27;5.40;99.90
6174;DHT22;3120;48.796;9.796;2022-12-20T15:33:54;5.40;99.90
6174;DHT22;3120;48.796;9.796;2022-12-20T15:36:24;5.30;99.90
6174;DHT22;3120;48.796;9.796;2022-12-20T15:38:51;6.20;99.90
6174;DHT22;3120;48.796;9.796;2022-12-20T15:41:28;5.10;99.90
6174;DHT22;3120;48.796;9.796;2022-12-20T15:43:56;5.10;99.90
6174;DHT22;3120;48.796;9.796;2022-12-20T15:46:22;5.10;99.90
6174;DHT22;3120;48.796;9.796;2022-12-20T15:48:48;5.00;99.90
6174;DHT22;3120;48.796;9.796;2022-12-20T15:51:19;4.90;99.90
6174;DHT22;3120;48.796;9.796;2022-12-20T15:53:45;4.90;99.90
6174;DHT22;3120;48.796;9.796;2022-12-20T15:56:22;4.90;99.90
6174;DHT22;3120;48.796;9.796;2022-12-20T15:58:48;4.80;99.90
6174;DHT22;3120;48.796;9.796;2022-12-20T16:01:20;4.80;99.90
6174;DHT22;3120;48.796;9.796;2022-12-20T16:03:46;6.20;99.90
6174;DHT22;3120;48.796;9.796;2022-12-20T16:06:12;4.60;99.90
6174;DHT22;3120;48.796;9.796;2022-12-20T16:08:39;4.50;99.90
6174;DHT22;3120;48.796;9.796;2022-12-20T16:11:06;4.50;99.90
6174;DHT22;3120;48.796;9.796;2022-12-20T16:13:36;4.50;99.90
6174;DHT22;3120;48.796;9.796;2022-12-20T16:16:01;4.50;99.90
6174;DHT22;3120;48.796;9.796;2022-12-20T16:18:27;4.40;99.90
6174;DHT22;3120;48.796;9.796;2022-12-20T16:20:54;4.40;99.90
6174;DHT22;3120;48.796;9.796;2022-12-20T16:23:22;4.30;99.90
6174;DHT22;3120;48.796;9.796;2022-12-20T16:25:57;4.30;99.90
6174;DHT22;3120;48.796;9.796;2022-12-20T16:28:23;5.20;99.90
6174;DHT22;3120;48.796;9.796;2022-12-20T16:30:48;5.20;99.90
6174;DHT22;3120;48.796;9.796;2022-12-20T16:33:21;4.20;99.90
6174;DHT22;3120;48.796;9.796;2022-12-20T16:35:47;4.60;99.90
6174;DHT22;3120;48.796;9.796;2022-12-20T16:38:12;5.10;99.90
6174;DHT22;3120;48.796;9.796;2022-12-20T16:40:38;5.20;99.90
6174;DHT22;3120;48.796;9.796;2022-12-20T16:43:12;4.30;99.90
6174;DHT22;3120;48.796;9.796;2022-12-20T16:45:38;5.50;99.90
6174;DHT22;3120;48.796;9.796;2022-12-20T16:48:04;4.30;99.90
6174;DHT22;3120;48.796;9.796;2022-12-20T16:50:30;4.30;99.90
6174;DHT22;3120;48.796;9.796;2022-12-20T16:52:55;4.40;99.90
6174;DHT22;3120;48.796;9.796;2022-12-20T16:55:26;5.50;99.90
6174;DHT22;3120;48.796;9.796;2022-12-20T16:57:53;4.40;99.90
6174;DHT22;3120;48.796;9.796;2022-12-20T17:00:25;4.20;99.90
6174;DHT22;3120;48.796;9.796;2022-12-20T17:02:54;6.20;99.90
6174;DHT22;3120;48.796;9.796;2022-12-20T17:05:23;4.40;99.90
6174;DHT22;3120;48.796;9.796;2022-12-20T17:07:49;5.10;99.90
6174;DHT22;3120;48.796;9.796;2022-12-20T17:10:15;4.30;99.90
6174;DHT22;3120;48.796;9.796;2022-12-20T17:12:43;4.30;99.90
6174;DHT22;3120;48.796;9.796;2022-12-20T17:15:21;5.70;99.90
6174;DHT22;3120;48.796;9.796;2022-12-20T17:17:48;4.40;99.90
6174;DHT22;3120;48.796;9.796;2022-12-20T17:20:14;4.40;99.90
6174;DHT22;3120;48.796;9.796;2022-12-20T17:22:40;4.50;99.90
6174;DHT22;3120;48.796;9.796;2022-12-20T17:25:28;4.40;99.90
6174;DHT22;3120;48.796;9.796;2022-12-20T17:27:56;4.40;99.90
6174;DHT22;3120;48.796;9.796;2022-12-20T17:30:23;4.40;99.90
6174;DHT22;3120;48.796;9.796;2022-12-20T17:32:50;4.40;99.90
6174;DHT22;3120;48.796;9.796;2022-12-20T17:37:49;4.40;99.90
6174;DHT22;3120;48.796;9.796;2022-12-20T17:40:18;4.30;99.90
6174;DHT22;3120;48.796;9.796;2022-12-20T17:42:44;4.40;99.90
6174;DHT22;3120;48.796;9.796;2022-12-20T17:45:31;4.40;99.90
6174;DHT22;3120;48.796;9.796;2022-12-20T17:47:57;4.40;99.90
6174;DHT22;3120;48.796;9.796;2022-12-20T17:50:24;4.40;99.90
6174;DHT22;3120;48.796;9.796;2022-12-20T17:52:51;4.40;99.90
6174;DHT22;3120;48.796;9.796;2022-12-20T17:55:26;4.30;99.90
6174;DHT22;3120;48.796;9.796;2022-12-20T17:57:53;4.40;99.90
6174;DHT22;3120;48.796;9.796;2022-12-20T18:00:28;4.40;99.90
6174;DHT22;3120;48.796;9.796;2022-12-20T18:02:54;4.40;99.90
6174;DHT22;3120;48.796;9.796;2022-12-20T18:05:21;4.30;99.90
6174;DHT22;3120;48.796;9.796;2022-12-20T18:07:52;4.90;99.90
6174;DHT22;3120;48.796;9.796;2022-12-20T18:10:19;4.20;99.90
6174;DHT22;3120;48.796;9.796;2022-12-20T18:12:44;4.20;99.90
6174;DHT22;3120;48.796;9.796;2022-12-20T18:15:10;4.20;99.90
6174;DHT22;3120;48.796;9.796;2022-12-20T18:17:36;4.10;99.90
6174;DHT22;3120;48.796;9.796;2022-12-20T18:20:06;4.10;99.90
6174;DHT22;3120;48.796;9.796;2022-12-20T18:22:33;4.10;99.90
6174;DHT22;3120;48.796;9.796;2022-12-20T18:25:06;4.50;99.90
6174;DHT22;3120;48.796;9.796;2022-12-20T18:27:40;4.10;99.90
6174;DHT22;3120;48.796;9.796;2022-12-20T18:30:07;4.10;99.90
6174;DHT22;3120;48.796;9.796;2022-12-20T18:32:33;4.10;99.90
6174;DHT22;3120;48.796;9.796;2022-12-20T18:35:06;4.10;99.90
6174;DHT22;3120;48.796;9.796;2022-12-20T18:37:32;4.20;99.90
6174;DHT22;3120;48.796;9.796;2022-12-20T18:39:57;4.10;99.90
6174;DHT22;3120;48.796;9.796;2022-12-20T18:42:23;4.20;99.90
6174;DHT22;3120;48.796;9.796;2022-12-20T18:44:48;4.20;99.90
6174;DHT22;3120;48.796;9.796;2022-12-20T18:47:14;4.20;99.90
6174;DHT22;3120;48.796;9.796;2022-12-20T18:49:40;4.20;99.90
6174;DHT22;3120;48.796;9.796;2022-12-20T18:52:11;4.10;99.90
6174;DHT22;3120;48.796;9.796;2022-12-20T18:54:37;4.20;99.90
6174;DHT22;3120;48.796;9.796;2022-12-20T18:57:02;4.10;99.90
6174;DHT22;3120;48.796;9.796;2022-12-20T18:59:31;4.10;99.90
6174;DHT22;3120;48.796;9.796;2022-12-20T19:01:57;4.10;99.90
6174;DHT22;3120;48.796;9.796;2022-12-20T19:04:23;4.00;99.90
6174;DHT22;3120;48.796;9.796;2022-12-20T19:06:48;5.70;99.90
6174;DHT22;3120;48.796;9.796;2022-12-20T19:09:14;4.00;99.90